Aristobulo del Valle, Argentina
Current Conditions -  °F | °C
As of 7:00 PM on Sunday 25 Jan 2015 (Local Time) from SARI Reporting Station
Thunderstorm Thunderstorm  
Wind Chill: 72°   Ceiling: 4000
Heat Index: 72°   Visibility: 5mi
Dew Point: 70°   Wind: 5mph
Humidity: 94%   Direction: 140°SE
Pressure: 29.91"   Gusts: NA
Location:  26.92°S, 54.35°W
Report Text: SARI 252200Z 14004KT 8000 -TSRA SCT020BKN040 FEW045CB 22/21 Q1013
Loading
Personal Weather Stations






























Interactive Weather Map New forecast layout! Learn more

10-Day Weather Forecast

Advertisements
Track Severe Weather on mobile